Vancouver, Canada
Current Conditions -  °F | °C
As of 9:00 AM on Sunday 21 Dec 2014 (Local Time) from CYVR Reporting Station
Light Fog Light Fog  
Wind Chill: 39°   Ceiling: 17000
Heat Index: 39°   Visibility: 15mi
Dew Point: 39°   Wind: 3mph
Humidity: 100%   Direction: 100°E
Pressure: 29.83"   Gusts: NA
Location:  49.26°N, 123.11°W
Report Text: CYVR 211700Z 10003KT 050V120 15SM MIFG FEW015 FEW040 BKN170 04/04 A2983 RMK SC1SC1AC4 SLP101
Loading
Personal Weather Stations






























Interactive Weather Map New forecast layout! Learn more

10-Day Weather Forecast

Advertisements
Track Severe Weather on mobile